Time;durP1;ratioP1;P1;durP2;ratioP2;P2;SDS_P1;SDS_P2;PMS_P1;PMS_P2;Temp;Humidity;BMP_temperature;BMP_pressure;BME280_temperature;BME280_humidity;BME280_pressure;Samples;Min_cycle;Max_cycle;Signal;HPM_P1;HPM_P2
2023/09/16 00:01:13;;;;;;;10.43;8.60;;;;;;;;;;4846649;29;20060;-77
2023/09/16 00:03:39;;;;;;;16.88;9.65;;;;;;;;;;4869261;29;20040;-77
2023/09/16 00:06:05;;;;;;;12.57;9.35;;;;;;;;;;4871617;29;20055;-77
2023/09/16 00:08:33;;;;;;;10.50;9.27;;;;;;;;;;4870566;29;20056;-77
2023/09/16 00:10:59;;;;;;;10.38;9.30;;;;;;;;;;4870181;29;20048;-76
2023/09/16 00:13:25;;;;;;;13.23;9.15;;;;;;;;;;4869335;29;20083;-76
2023/09/16 00:15:51;;;;;;;11.75;9.50;;;;;;;;;;4853870;29;20063;-76
2023/09/16 00:18:19;;;;;;;13.55;9.98;;;;;;;;;;4868674;29;20055;-77
2023/09/16 00:20:48;;;;;;;12.00;9.88;;;;;;;;;;4876481;29;21955;-77
2023/09/16 00:23:14;;;;;;;12.38;10.13;;;;;;;;;;4869245;29;20071;-77
2023/09/16 00:25:40;;;;;;;10.98;9.68;;;;;;;;;;4883288;29;20104;-76
2023/09/16 00:28:06;;;;;;;12.60;9.68;;;;;;;;;;4867342;29;20060;-77
2023/09/16 00:30:33;;;;;;;12.45;9.63;;;;;;;;;;4863707;29;20244;-77
2023/09/16 00:32:59;;;;;;;15.75;10.10;;;;;;;;;;4868936;29;20497;-77
2023/09/16 00:35:25;;;;;;;13.60;10.52;;;;;;;;;;4868531;29;20706;-77
2023/09/16 00:37:51;;;;;;;12.32;10.13;;;;;;;;;;4870100;29;20040;-77
2023/09/16 00:40:17;;;;;;;14.20;10.02;;;;;;;;;;4867393;29;20048;-76
2023/09/16 00:42:43;;;;;;;11.52;9.93;;;;;;;;;;4852111;29;20079;-77
2023/09/16 00:45:10;;;;;;;12.05;10.85;;;;;;;;;;4867140;29;20474;-78
2023/09/16 00:47:42;;;;;;;15.43;10.45;;;;;;;;;;4865658;29;20085;-78
2023/09/16 00:50:09;;;;;;;15.00;11.40;;;;;;;;;;4867749;29;20091;-77
2023/09/16 00:52:37;;;;;;;13.02;10.70;;;;;;;;;;4847652;29;20049;-78
2023/09/16 00:55:04;;;;;;;12.90;11.18;;;;;;;;;;4851812;29;20101;-77
2023/09/16 00:57:32;;;;;;;13.85;11.68;;;;;;;;;;4867791;29;20056;-78
2023/09/16 00:59:58;;;;;;;15.77;11.10;;;;;;;;;;4865211;29;20104;-77
2023/09/16 01:02:24;;;;;;;11.35;9.68;;;;;;;;;;4870757;29;20693;-78
2023/09/16 01:04:50;;;;;;;12.50;9.98;;;;;;;;;;4870437;29;20052;-78
2023/09/16 01:07:17;;;;;;;15.85;10.98;;;;;;;;;;4870111;29;20102;-78
2023/09/16 01:09:44;;;;;;;14.40;11.07;;;;;;;;;;4869306;29;20056;-77
2023/09/16 01:12:10;;;;;;;15.30;10.98;;;;;;;;;;4870853;29;20053;-77
2023/09/16 01:14:37;;;;;;;13.32;11.30;;;;;;;;;;4877778;29;21626;-77
2023/09/16 01:17:09;;;;;;;12.23;10.70;;;;;;;;;;4846967;29;20584;-78
2023/09/16 01:19:56;;;;;;;15.15;11.38;;;;;;;;;;4871458;29;20750;-78
2023/09/16 01:22:23;;;;;;;14.98;10.77;;;;;;;;;;4868646;29;20441;-77
2023/09/16 01:24:53;;;;;;;15.93;11.20;;;;;;;;;;4853466;29;20131;-77
2023/09/16 01:27:20;;;;;;;15.40;10.65;;;;;;;;;;4873621;29;20055;-78
2023/09/16 01:29:46;;;;;;;12.98;11.27;;;;;;;;;;4870076;29;20123;-78
2023/09/16 01:32:12;;;;;;;13.10;10.18;;;;;;;;;;4871777;29;20068;-78
2023/09/16 01:34:38;;;;;;;21.00;11.32;;;;;;;;;;4870024;29;20136;-77
2023/09/16 01:37:06;;;;;;;18.27;10.98;;;;;;;;;;4872701;29;20093;-78
2023/09/16 01:39:33;;;;;;;21.85;10.70;;;;;;;;;;4864047;29;20079;-78
2023/09/16 01:41:59;;;;;;;19.35;11.15;;;;;;;;;;4872201;29;20063;-78
2023/09/16 01:44:26;;;;;;;18.00;10.82;;;;;;;;;;4874835;29;20048;-77
2023/09/16 01:46:55;;;;;;;17.85;12.38;;;;;;;;;;4870755;29;20051;-77
2023/09/16 01:49:22;;;;;;;13.45;11.75;;;;;;;;;;4845723;29;20052;-76
2023/09/16 01:51:48;;;;;;;25.45;13.38;;;;;;;;;;4884126;29;20175;-77
2023/09/16 01:54:14;;;;;;;18.33;12.75;;;;;;;;;;4878335;29;20873;-77
2023/09/16 01:56:40;;;;;;;19.13;12.68;;;;;;;;;;4866398;29;20454;-77
2023/09/16 01:59:06;;;;;;;16.88;12.20;;;;;;;;;;4868860;29;20057;-77
2023/09/16 02:01:33;;;;;;;14.95;11.93;;;;;;;;;;4871685;29;20076;-77
2023/09/16 02:03:59;;;;;;;15.32;11.88;;;;;;;;;;4870266;29;20074;-77
2023/09/16 02:06:25;;;;;;;19.55;12.50;;;;;;;;;;4874484;29;20101;-77
2023/09/16 02:08:51;;;;;;;14.45;11.68;;;;;;;;;;4869458;29;20045;-78
2023/09/16 02:11:17;;;;;;;17.20;12.52;;;;;;;;;;4866154;29;20071;-78
2023/09/16 02:13:43;;;;;;;17.63;12.25;;;;;;;;;;4870472;29;20075;-78
2023/09/16 02:16:10;;;;;;;20.83;13.93;;;;;;;;;;4879543;29;20064;-77
2023/09/16 02:18:36;;;;;;;16.33;13.45;;;;;;;;;;4869017;29;20400;-78
2023/09/16 02:21:02;;;;;;;19.42;13.95;;;;;;;;;;4855180;29;20128;-78
2023/09/16 02:23:30;;;;;;;18.48;14.40;;;;;;;;;;4842267;29;20044;-78
2023/09/16 02:26:00;;;;;;;14.95;12.60;;;;;;;;;;4853902;29;20059;-78
2023/09/16 02:28:26;;;;;;;16.83;13.18;;;;;;;;;;4870128;29;20512;-77
2023/09/16 02:30:52;;;;;;;16.35;13.68;;;;;;;;;;4867782;29;20614;-78
2023/09/16 02:33:18;;;;;;;17.00;14.18;;;;;;;;;;4868053;29;20529;-78
2023/09/16 02:35:44;;;;;;;24.27;15.10;;;;;;;;;;4869320;29;20044;-76
2023/09/16 02:38:10;;;;;;;34.05;15.38;;;;;;;;;;4870066;29;20100;-76
2023/09/16 02:40:42;;;;;;;19.17;14.05;;;;;;;;;;4863538;29;20044;-77
2023/09/16 02:43:09;;;;;;;19.10;14.18;;;;;;;;;;4869151;29;20104;-77
2023/09/16 02:45:39;;;;;;;16.90;13.30;;;;;;;;;;4872358;29;20079;-77
2023/09/16 02:48:06;;;;;;;16.05;13.88;;;;;;;;;;4872247;29;20044;-78
2023/09/16 02:50:35;;;;;;;29.48;14.90;;;;;;;;;;4880361;29;20044;-77
2023/09/16 02:53:01;;;;;;;18.75;15.57;;;;;;;;;;4870196;29;22060;-77
2023/09/16 02:55:28;;;;;;;16.40;14.43;;;;;;;;;;4873231;29;20151;-78
2023/09/16 02:57:54;;;;;;;17.45;14.60;;;;;;;;;;4877826;29;20067;-78
2023/09/16 03:00:20;;;;;;;20.92;15.80;;;;;;;;;;4868862;29;20057;-75
2023/09/16 03:02:48;;;;;;;22.38;15.90;;;;;;;;;;4869622;29;21766;-76
2023/09/16 03:05:14;;;;;;;22.30;15.25;;;;;;;;;;4862434;29;20048;-77
2023/09/16 03:07:41;;;;;;;25.88;17.42;;;;;;;;;;4871569;29;20054;-77
2023/09/16 03:10:07;;;;;;;19.95;14.98;;;;;;;;;;4870382;29;20044;-77
2023/09/16 03:12:33;;;;;;;17.00;15.20;;;;;;;;;;4864447;29;20048;-76
2023/09/16 03:14:59;;;;;;;20.33;16.38;;;;;;;;;;4871237;29;20059;-77
2023/09/16 03:17:26;;;;;;;21.83;17.17;;;;;;;;;;4879234;29;20055;-77
2023/09/16 03:19:53;;;;;;;19.30;15.13;;;;;;;;;;4869853;29;20044;-77
2023/09/16 03:22:19;;;;;;;21.48;15.93;;;;;;;;;;4868430;29;20045;-77
2023/09/16 03:24:45;;;;;;;21.20;15.70;;;;;;;;;;4864784;29;20123;-77
2023/09/16 03:27:11;;;;;;;17.20;14.95;;;;;;;;;;4869230;29;20878;-76
2023/09/16 03:29:37;;;;;;;24.90;16.75;;;;;;;;;;4871199;29;21705;-77
2023/09/16 03:32:03;;;;;;;20.25;16.23;;;;;;;;;;4845928;29;20040;-77
2023/09/16 03:34:29;;;;;;;21.33;16.85;;;;;;;;;;4866482;29;20049;-77
2023/09/16 03:36:56;;;;;;;20.05;15.60;;;;;;;;;;4864094;29;20044;-78
2023/09/16 03:39:22;;;;;;;19.45;17.30;;;;;;;;;;4851917;29;20040;-77
2023/09/16 03:41:48;;;;;;;19.52;17.15;;;;;;;;;;4878298;29;20063;-77
2023/09/16 03:44:15;;;;;;;20.13;16.38;;;;;;;;;;4838253;29;20056;-77
2023/09/16 03:46:41;;;;;;;19.35;16.55;;;;;;;;;;4868253;29;20167;-77
2023/09/16 03:49:07;;;;;;;22.05;17.67;;;;;;;;;;4865350;29;20080;-77
2023/09/16 03:51:34;;;;;;;19.35;17.13;;;;;;;;;;4868918;29;20112;-77
2023/09/16 03:54:00;;;;;;;20.90;15.98;;;;;;;;;;4879090;29;20092;-77
2023/09/16 03:56:26;;;;;;;24.70;16.27;;;;;;;;;;4869288;29;20059;-77
2023/09/16 03:58:52;;;;;;;18.42;14.82;;;;;;;;;;4867441;29;20107;-77
2023/09/16 04:01:18;;;;;;;17.88;15.98;;;;;;;;;;4867659;29;20052;-77
2023/09/16 04:03:44;;;;;;;19.52;16.65;;;;;;;;;;4878387;29;20048;-77
2023/09/16 04:06:10;;;;;;;18.25;14.98;;;;;;;;;;4862241;29;20049;-77
2023/09/16 04:08:37;;;;;;;16.65;14.85;;;;;;;;;;4866830;29;20100;-77
2023/09/16 04:11:04;;;;;;;19.85;16.52;;;;;;;;;;4868712;29;20095;-77
2023/09/16 04:13:30;;;;;;;19.85;17.17;;;;;;;;;;4868224;29;20052;-77
2023/09/16 04:15:56;;;;;;;18.85;16.20;;;;;;;;;;4868014;29;20052;-77
2023/09/16 04:18:22;;;;;;;19.27;16.17;;;;;;;;;;4864679;29;20048;-77
2023/09/16 04:20:50;;;;;;;19.20;16.55;;;;;;;;;;4853119;29;20053;-77
2023/09/16 04:23:16;;;;;;;23.40;18.55;;;;;;;;;;4865964;29;20048;-77
2023/09/16 04:25:43;;;;;;;21.23;17.10;;;;;;;;;;4858635;29;20060;-77
2023/09/16 04:28:09;;;;;;;20.67;16.92;;;;;;;;;;4864512;29;20128;-77
2023/09/16 04:30:39;;;;;;;22.17;18.40;;;;;;;;;;4866517;29;20513;-77
2023/09/16 04:33:07;;;;;;;23.83;18.00;;;;;;;;;;4869195;29;20115;-77
2023/09/16 04:35:41;;;;;;;23.20;18.60;;;;;;;;;;4876899;29;20049;-77
2023/09/16 04:38:08;;;;;;;20.45;17.15;;;;;;;;;;4868385;29;20685;-76
2023/09/16 04:40:34;;;;;;;22.98;17.08;;;;;;;;;;4878701;29;20048;-77
2023/09/16 04:43:00;;;;;;;22.33;18.15;;;;;;;;;;4868570;29;20139;-76
2023/09/16 04:45:26;;;;;;;22.42;18.92;;;;;;;;;;4869956;29;20060;-77
2023/09/16 04:47:52;;;;;;;20.98;18.70;;;;;;;;;;4865074;29;20723;-76
2023/09/16 04:50:18;;;;;;;20.00;16.83;;;;;;;;;;4847476;29;20852;-77
2023/09/16 04:52:44;;;;;;;21.88;17.63;;;;;;;;;;4867796;29;20094;-77
2023/09/16 04:55:10;;;;;;;22.85;18.40;;;;;;;;;;4865417;29;21031;-77
2023/09/16 04:57:36;;;;;;;22.00;17.98;;;;;;;;;;4868253;29;20990;-77
2023/09/16 05:00:05;;;;;;;26.30;17.10;;;;;;;;;;4876332;29;21208;-77
2023/09/16 05:02:32;;;;;;;25.02;17.52;;;;;;;;;;4867930;29;20052;-77
2023/09/16 05:04:58;;;;;;;21.17;17.88;;;;;;;;;;4864351;29;20108;-77
2023/09/16 05:07:24;;;;;;;21.00;17.52;;;;;;;;;;4868257;29;20067;-78
2023/09/16 05:09:50;;;;;;;24.45;19.58;;;;;;;;;;4868233;29;20049;-77
2023/09/16 05:12:16;;;;;;;21.00;17.95;;;;;;;;;;4867378;29;20093;-78
2023/09/16 05:14:42;;;;;;;20.45;17.35;;;;;;;;;;4862784;29;20049;-78
2023/09/16 05:17:09;;;;;;;22.45;19.35;;;;;;;;;;4834207;29;20052;-78
2023/09/16 05:19:35;;;;;;;21.80;19.23;;;;;;;;;;4870225;29;20048;-78
2023/09/16 05:22:03;;;;;;;22.95;19.05;;;;;;;;;;4864550;29;20437;-78
2023/09/16 05:24:31;;;;;;;21.30;17.65;;;;;;;;;;4865769;29;20087;-78
2023/09/16 05:26:57;;;;;;;20.45;18.25;;;;;;;;;;4867397;29;20152;-78
2023/09/16 05:29:23;;;;;;;19.77;17.73;;;;;;;;;;4865657;29;20286;-75
2023/09/16 05:31:49;;;;;;;22.08;17.40;;;;;;;;;;4852119;29;20135;-76
2023/09/16 05:34:16;;;;;;;24.05;18.92;;;;;;;;;;4849978;29;20059;-77
2023/09/16 05:36:42;;;;;;;24.17;19.55;;;;;;;;;;4865782;29;20064;-77
2023/09/16 05:39:08;;;;;;;22.27;19.95;;;;;;;;;;4865304;29;20053;-77
2023/09/16 05:41:35;;;;;;;26.58;21.80;;;;;;;;;;4865697;29;20529;-77
2023/09/16 05:44:01;;;;;;;26.70;19.13;;;;;;;;;;4860918;29;20067;-77
2023/09/16 05:46:28;;;;;;;22.20;17.70;;;;;;;;;;4874256;29;20052;-78
2023/09/16 05:49:06;;;;;;;25.67;19.77;;;;;;;;;;4867990;29;20053;-77
2023/09/16 05:51:35;;;;;;;22.70;18.92;;;;;;;;;;4865866;29;20470;-76
2023/09/16 05:54:01;;;;;;;20.65;17.73;;;;;;;;;;4850732;29;20055;-76
2023/09/16 05:56:28;;;;;;;24.52;19.60;;;;;;;;;;4851632;29;20131;-76
2023/09/16 05:58:54;;;;;;;24.63;20.52;;;;;;;;;;4870439;29;20044;-76
2023/09/16 06:01:20;;;;;;;26.48;20.08;;;;;;;;;;4870779;29;20041;-77
2023/09/16 06:03:46;;;;;;;25.67;20.42;;;;;;;;;;4871384;29;20075;-78
2023/09/16 06:06:13;;;;;;;25.45;19.67;;;;;;;;;;4876305;29;20056;-78
2023/09/16 06:08:39;;;;;;;23.23;20.80;;;;;;;;;;4873712;29;20063;-78
2023/09/16 06:11:05;;;;;;;23.30;20.25;;;;;;;;;;4887742;29;20151;-78
2023/09/16 06:13:31;;;;;;;25.25;20.23;;;;;;;;;;4889989;29;20501;-78
2023/09/16 06:15:57;;;;;;;23.17;20.02;;;;;;;;;;4872537;29;20044;-78
2023/09/16 06:18:23;;;;;;;24.10;20.50;;;;;;;;;;4873271;29;22451;-79
2023/09/16 06:20:49;;;;;;;23.23;19.92;;;;;;;;;;4883427;29;20055;-77
2023/09/16 06:23:15;;;;;;;24.45;20.50;;;;;;;;;;4872070;29;20159;-77
2023/09/16 06:25:41;;;;;;;23.45;19.38;;;;;;;;;;4871027;29;20049;-78
2023/09/16 06:28:08;;;;;;;23.70;20.35;;;;;;;;;;4874063;29;20068;-78
2023/09/16 06:30:34;;;;;;;24.17;20.30;;;;;;;;;;4852208;29;20052;-78
2023/09/16 06:33:00;;;;;;;22.38;19.98;;;;;;;;;;4871297;29;20041;-78
2023/09/16 06:35:26;;;;;;;22.60;19.90;;;;;;;;;;4883606;29;20056;-78
2023/09/16 06:37:52;;;;;;;24.40;20.52;;;;;;;;;;4869621;29;20132;-78
2023/09/16 06:40:18;;;;;;;25.27;20.58;;;;;;;;;;4866902;29;20072;-78
2023/09/16 06:42:45;;;;;;;26.30;20.23;;;;;;;;;;4864901;29;20143;-77
2023/09/16 06:45:12;;;;;;;25.67;19.50;;;;;;;;;;4867382;29;20053;-76
2023/09/16 06:47:38;;;;;;;24.17;19.52;;;;;;;;;;4864481;29;20057;-77
2023/09/16 06:50:06;;;;;;;24.02;19.83;;;;;;;;;;4866316;29;20052;-77
2023/09/16 06:52:32;;;;;;;22.55;20.13;;;;;;;;;;4865786;29;20048;-78
2023/09/16 06:54:58;;;;;;;27.48;20.02;;;;;;;;;;4843967;29;20063;-77
2023/09/16 06:57:24;;;;;;;21.67;19.38;;;;;;;;;;4864304;29;20472;-77
2023/09/16 06:59:50;;;;;;;21.58;19.27;;;;;;;;;;4845631;29;20044;-77
2023/09/16 07:02:17;;;;;;;24.48;19.63;;;;;;;;;;4850612;29;20483;-77
2023/09/16 07:04:45;;;;;;;23.52;19.60;;;;;;;;;;4868838;29;20056;-77
2023/09/16 07:07:11;;;;;;;22.23;19.50;;;;;;;;;;4852869;29;20063;-77
2023/09/16 07:09:37;;;;;;;20.33;18.20;;;;;;;;;;4866189;29;20583;-77
2023/09/16 07:12:05;;;;;;;20.20;18.10;;;;;;;;;;4868597;29;20175;-77
2023/09/16 07:14:31;;;;;;;20.58;18.38;;;;;;;;;;4865992;29;20048;-77
2023/09/16 07:16:57;;;;;;;20.77;17.83;;;;;;;;;;4870227;29;20096;-77
2023/09/16 07:19:23;;;;;;;22.70;18.65;;;;;;;;;;4853578;29;20052;-77
2023/09/16 07:21:49;;;;;;;21.23;17.67;;;;;;;;;;4869470;29;20592;-77
2023/09/16 07:24:16;;;;;;;20.58;16.98;;;;;;;;;;4871584;29;20044;-77
2023/09/16 07:26:44;;;;;;;25.80;16.83;;;;;;;;;;4867288;29;20580;-77
2023/09/16 07:29:11;;;;;;;19.23;16.45;;;;;;;;;;4883471;29;20045;-77
2023/09/16 07:31:37;;;;;;;20.10;15.75;;;;;;;;;;4871699;29;20271;-77
2023/09/16 07:34:03;;;;;;;18.13;16.23;;;;;;;;;;4872401;29;20092;-77
2023/09/16 07:36:29;;;;;;;26.25;16.45;;;;;;;;;;4877684;29;20144;-77
2023/09/16 07:38:55;;;;;;;21.05;15.30;;;;;;;;;;4869336;29;20100;-77
2023/09/16 07:41:23;;;;;;;18.85;16.58;;;;;;;;;;4855174;29;20064;-77
2023/09/16 07:43:49;;;;;;;21.00;16.27;;;;;;;;;;4865911;29;20132;-77
2023/09/16 07:46:15;;;;;;;22.38;15.85;;;;;;;;;;4870599;29;20135;-77
2023/09/16 07:48:41;;;;;;;17.83;15.00;;;;;;;;;;4867085;29;20083;-77
2023/09/16 07:51:08;;;;;;;17.23;15.48;;;;;;;;;;4848111;29;20457;-78
2023/09/16 07:53:34;;;;;;;16.90;15.20;;;;;;;;;;4864449;29;20064;-78
2023/09/16 07:56:00;;;;;;;16.48;14.77;;;;;;;;;;4865807;29;20063;-78
2023/09/16 07:58:26;;;;;;;31.52;16.58;;;;;;;;;;4849607;29;20434;-77
2023/09/16 08:00:53;;;;;;;18.58;15.45;;;;;;;;;;4868932;29;20048;-77
2023/09/16 08:03:19;;;;;;;15.73;14.07;;;;;;;;;;4869518;29;20060;-78
2023/09/16 08:05:45;;;;;;;18.83;14.95;;;;;;;;;;4850197;29;20787;-77
2023/09/16 08:08:11;;;;;;;16.92;14.40;;;;;;;;;;4846256;29;20052;-78
2023/09/16 08:10:37;;;;;;;19.15;14.50;;;;;;;;;;4862502;29;20135;-78
2023/09/16 08:13:03;;;;;;;16.45;14.68;;;;;;;;;;4864886;29;20048;-78
2023/09/16 08:15:29;;;;;;;17.17;13.93;;;;;;;;;;4851484;29;20045;-77
2023/09/16 08:17:55;;;;;;;18.25;14.23;;;;;;;;;;4869567;29;20051;-78
2023/09/16 08:20:23;;;;;;;16.92;15.13;;;;;;;;;;4868485;29;20044;-78
2023/09/16 08:22:49;;;;;;;14.43;12.93;;;;;;;;;;4869662;29;20048;-78
2023/09/16 08:25:15;;;;;;;17.00;14.38;;;;;;;;;;4868498;29;20132;-78
2023/09/16 08:27:41;;;;;;;17.88;14.50;;;;;;;;;;4866746;29;20422;-79
2023/09/16 08:30:07;;;;;;;16.92;14.60;;;;;;;;;;4860467;29;20113;-83
2023/09/16 08:32:36;;;;;;;17.63;15.23;;;;;;;;;;4867736;29;20072;-83
2023/09/16 08:35:02;;;;;;;16.33;14.63;;;;;;;;;;4872067;29;20096;-81
2023/09/16 08:37:29;;;;;;;17.73;14.18;;;;;;;;;;4861530;29;20091;-83
2023/09/16 08:39:55;;;;;;;18.65;14.65;;;;;;;;;;4873274;29;20578;-83
2023/09/16 08:42:21;;;;;;;16.92;14.95;;;;;;;;;;4858174;29;20087;-83
2023/09/16 08:44:51;;;;;;;19.55;14.30;;;;;;;;;;4877695;29;20056;-87
2023/09/16 08:47:28;;;;;;;16.30;14.57;;;;;;;;;;4896251;29;21387;-85
2023/09/16 08:49:57;;;;;;;16.20;14.57;;;;;;;;;;4867542;29;20044;-85
2023/09/16 08:52:25;;;;;;;18.38;14.80;;;;;;;;;;4880117;29;20923;-86
2023/09/16 08:54:51;;;;;;;16.42;13.77;;;;;;;;;;4878611;29;20052;-83
2023/09/16 08:57:18;;;;;;;16.60;14.38;;;;;;;;;;4878957;29;20055;-84
2023/09/16 08:59:44;;;;;;;16.58;14.07;;;;;;;;;;4864442;29;20047;-84
2023/09/16 09:02:11;;;;;;;21.55;12.73;;;;;;;;;;4880704;29;20501;-84
2023/09/16 09:04:39;;;;;;;14.65;13.18;;;;;;;;;;4878888;29;20041;-84
2023/09/16 09:07:06;;;;;;;15.77;13.88;;;;;;;;;;4864557;29;21459;-84
2023/09/16 09:09:32;;;;;;;15.07;13.48;;;;;;;;;;4851037;29;20048;-85
2023/09/16 09:11:58;;;;;;;14.90;13.45;;;;;;;;;;4880411;29;21856;-85
2023/09/16 09:14:26;;;;;;;17.85;13.25;;;;;;;;;;4870158;29;20151;-85
2023/09/16 09:16:54;;;;;;;15.70;14.02;;;;;;;;;;4881737;29;20095;-85
2023/09/16 09:19:21;;;;;;;18.23;13.70;;;;;;;;;;4894782;29;20049;-85
2023/09/16 09:21:48;;;;;;;14.93;13.43;;;;;;;;;;4864861;29;20052;-86
2023/09/16 09:24:14;;;;;;;14.00;12.60;;;;;;;;;;4885189;29;20092;-86
2023/09/16 09:26:40;;;;;;;15.27;13.70;;;;;;;;;;4886118;29;20516;-87
2023/09/16 09:29:09;;;;;;;16.63;13.48;;;;;;;;;;4855160;29;20053;-87
2023/09/16 09:31:36;;;;;;;18.88;16.88;;;;;;;;;;4886922;29;20083;-87
2023/09/16 09:34:02;;;;;;;17.73;15.93;;;;;;;;;;4880407;29;21574;-85
2023/09/16 09:36:33;;;;;;;18.67;16.05;;;;;;;;;;4874008;29;20922;-84
2023/09/16 09:38:59;;;;;;;23.98;17.75;;;;;;;;;;4875501;29;20061;-85
2023/09/16 09:41:25;;;;;;;32.28;16.27;;;;;;;;;;4878913;29;20068;-86
2023/09/16 09:43:58;;;;;;;18.10;14.90;;;;;;;;;;4864118;29;20049;-84
2023/09/16 09:46:24;;;;;;;17.92;15.15;;;;;;;;;;4875329;29;20049;-85
2023/09/16 09:48:50;;;;;;;20.13;15.57;;;;;;;;;;4875046;29;20103;-80
2023/09/16 09:51:17;;;;;;;19.40;15.65;;;;;;;;;;4872191;29;20056;-80
2023/09/16 09:53:44;;;;;;;17.85;15.73;;;;;;;;;;4869565;29;20159;-80
2023/09/16 09:56:10;;;;;;;18.30;16.40;;;;;;;;;;4871885;29;20059;-80
2023/09/16 09:58:37;;;;;;;16.67;14.95;;;;;;;;;;4888670;29;20045;-80
2023/09/16 10:01:03;;;;;;;21.45;15.73;;;;;;;;;;4862975;29;20397;-80
2023/09/16 10:03:29;;;;;;;18.98;15.98;;;;;;;;;;4867855;29;20112;-80
2023/09/16 10:05:55;;;;;;;17.60;15.80;;;;;;;;;;4869409;29;20058;-80
2023/09/16 10:08:22;;;;;;;15.63;13.38;;;;;;;;;;4878344;29;20650;-80
2023/09/16 10:10:48;;;;;;;16.05;14.13;;;;;;;;;;4867765;29;20036;-80
2023/09/16 10:13:15;;;;;;;16.10;14.40;;;;;;;;;;4877026;29;21061;-80
2023/09/16 10:15:41;;;;;;;15.35;12.70;;;;;;;;;;4868827;29;20049;-80
2023/09/16 10:18:08;;;;;;;17.33;12.70;;;;;;;;;;4850397;29;20044;-80
2023/09/16 10:20:38;;;;;;;14.93;13.05;;;;;;;;;;4868306;29;21097;-81
2023/09/16 10:23:04;;;;;;;16.17;12.77;;;;;;;;;;4885007;29;20492;-80
2023/09/16 10:25:33;;;;;;;14.93;12.85;;;;;;;;;;4866710;29;20183;-80
2023/09/16 10:28:01;;;;;;;15.80;11.57;;;;;;;;;;4859806;29;20128;-81
2023/09/16 10:30:30;;;;;;;14.07;12.68;;;;;;;;;;4868082;29;20067;-80
2023/09/16 10:32:59;;;;;;;17.80;13.30;;;;;;;;;;4843978;29;20052;-80
2023/09/16 10:35:25;;;;;;;13.05;11.48;;;;;;;;;;4866681;29;20481;-81
2023/09/16 10:37:52;;;;;;;15.07;12.07;;;;;;;;;;4868887;29;20044;-81
2023/09/16 10:40:19;;;;;;;14.07;11.40;;;;;;;;;;4869387;29;20752;-80
2023/09/16 10:42:47;;;;;;;17.33;10.70;;;;;;;;;;4869479;29;20079;-80
2023/09/16 10:45:15;;;;;;;13.27;10.73;;;;;;;;;;4862480;29;20090;-80
2023/09/16 10:47:42;;;;;;;12.20;9.52;;;;;;;;;;4868805;29;20128;-80
2023/09/16 10:50:09;;;;;;;12.75;10.07;;;;;;;;;;4864045;29;20044;-80
2023/09/16 10:52:45;;;;;;;10.75;9.70;;;;;;;;;;4868532;29;20067;-80
2023/09/16 10:55:18;;;;;;;11.07;9.30;;;;;;;;;;4868425;29;20046;-80
2023/09/16 10:57:48;;;;;;;12.90;9.75;;;;;;;;;;4868361;29;20052;-81
2023/09/16 11:00:16;;;;;;;14.00;10.05;;;;;;;;;;4848162;29;20040;-81
2023/09/16 11:02:52;;;;;;;12.82;10.43;;;;;;;;;;4865785;29;21057;-80
2023/09/16 11:05:18;;;;;;;13.93;10.82;;;;;;;;;;4865299;29;20075;-81
2023/09/16 11:07:44;;;;;;;12.63;9.68;;;;;;;;;;4850540;29;20049;-79
2023/09/16 11:10:11;;;;;;;10.93;8.98;;;;;;;;;;4860555;29;20056;-79
2023/09/16 11:12:38;;;;;;;10.90;9.75;;;;;;;;;;4861649;29;20049;-80
2023/09/16 11:15:08;;;;;;;11.23;8.48;;;;;;;;;;4856311;29;20091;-80
2023/09/16 11:17:34;;;;;;;23.30;9.95;;;;;;;;;;4850155;29;20160;-80
2023/09/16 11:20:13;;;;;;;18.08;10.18;;;;;;;;;;4864024;29;20040;-79
2023/09/16 11:22:47;;;;;;;19.80;10.27;;;;;;;;;;4858430;29;20163;-78
2023/09/16 11:25:13;;;;;;;11.55;10.25;;;;;;;;;;4855904;29;20063;-80
2023/09/16 11:27:39;;;;;;;13.20;9.85;;;;;;;;;;4863254;29;20434;-80
2023/09/16 11:30:15;;;;;;;18.67;9.38;;;;;;;;;;4864716;29;20045;-80
2023/09/16 11:32:42;;;;;;;14.35;8.88;;;;;;;;;;4863582;29;20048;-78
2023/09/16 11:35:08;;;;;;;10.68;7.63;;;;;;;;;;4861958;29;20500;-79
2023/09/16 11:37:35;;;;;;;11.55;7.43;;;;;;;;;;4862209;29;20124;-79
2023/09/16 11:40:01;;;;;;;13.80;7.32;;;;;;;;;;4864259;29;20557;-79
2023/09/16 11:42:27;;;;;;;8.60;5.90;;;;;;;;;;4868766;29;20065;-80
2023/09/16 11:44:55;;;;;;;7.60;6.45;;;;;;;;;;4869877;29;20059;-80
2023/09/16 11:47:21;;;;;;;7.90;7.07;;;;;;;;;;4869524;29;20064;-80
2023/09/16 11:49:49;;;;;;;11.70;8.02;;;;;;;;;;4847729;29;20979;-79
2023/09/16 11:52:15;;;;;;;10.07;8.20;;;;;;;;;;4852117;29;20106;-80
2023/09/16 11:54:41;;;;;;;13.20;7.53;;;;;;;;;;4840107;29;20705;-79
2023/09/16 11:57:08;;;;;;;9.57;8.48;;;;;;;;;;4868903;29;20059;-79
2023/09/16 11:59:34;;;;;;;9.50;7.90;;;;;;;;;;4870562;29;20139;-79
2023/09/16 12:02:00;;;;;;;12.48;7.53;;;;;;;;;;4868055;29;20100;-79
2023/09/16 12:04:27;;;;;;;13.07;7.43;;;;;;;;;;4850707;29;20131;-79
2023/09/16 12:06:54;;;;;;;13.18;7.22;;;;;;;;;;4865306;29;20052;-80
2023/09/16 12:09:22;;;;;;;9.50;7.45;;;;;;;;;;4867292;29;20063;-79
2023/09/16 12:11:50;;;;;;;10.00;6.82;;;;;;;;;;4866998;29;20626;-79
2023/09/16 12:14:16;;;;;;;7.85;6.35;;;;;;;;;;4883804;29;20217;-79
2023/09/16 12:16:42;;;;;;;7.03;6.32;;;;;;;;;;4852741;29;20144;-79
2023/09/16 12:19:08;;;;;;;10.13;6.93;;;;;;;;;;4866691;29;20921;-79
2023/09/16 12:21:35;;;;;;;7.95;6.35;;;;;;;;;;4866502;29;20128;-79
2023/09/16 12:24:01;;;;;;;6.85;6.10;;;;;;;;;;4867404;29;20180;-80
2023/09/16 12:26:27;;;;;;;8.68;6.10;;;;;;;;;;4865067;29;20126;-80
2023/09/16 12:28:53;;;;;;;10.55;5.20;;;;;;;;;;4867784;29;20064;-80
2023/09/16 12:31:24;;;;;;;5.53;4.60;;;;;;;;;;4848150;29;20048;-79
2023/09/16 12:33:56;;;;;;;5.70;5.20;;;;;;;;;;4864784;29;20044;-79
2023/09/16 12:36:25;;;;;;;6.43;4.38;;;;;;;;;;4864550;29;20088;-79
2023/09/16 12:38:53;;;;;;;4.88;4.03;;;;;;;;;;4865507;29;20056;-79
2023/09/16 12:41:20;;;;;;;6.13;4.28;;;;;;;;;;4863065;29;20520;-79
2023/09/16 12:43:47;;;;;;;6.97;4.35;;;;;;;;;;4864245;29;20574;-79
2023/09/16 12:46:13;;;;;;;11.00;6.28;;;;;;;;;;4864754;29;20048;-80
2023/09/16 12:48:41;;;;;;;7.88;6.22;;;;;;;;;;4864951;29;20048;-79
2023/09/16 12:51:08;;;;;;;8.40;5.30;;;;;;;;;;4858821;29;20052;-79
2023/09/16 12:53:34;;;;;;;9.90;5.63;;;;;;;;;;4845005;29;20045;-78
2023/09/16 12:56:03;;;;;;;10.00;5.18;;;;;;;;;;4862988;29;20063;-77
2023/09/16 12:58:30;;;;;;;8.75;4.93;;;;;;;;;;4867572;29;20049;-79
2023/09/16 13:00:56;;;;;;;8.32;4.40;;;;;;;;;;4868316;29;20113;-78
2023/09/16 13:03:25;;;;;;;7.65;4.45;;;;;;;;;;4870469;29;20049;-78
2023/09/16 13:05:52;;;;;;;4.53;3.88;;;;;;;;;;4864871;29;20592;-79
2023/09/16 13:08:24;;;;;;;5.13;4.20;;;;;;;;;;4866074;29;20083;-79
2023/09/16 13:10:54;;;;;;;5.43;4.00;;;;;;;;;;4864757;29;20056;-79
2023/09/16 13:13:22;;;;;;;6.30;4.30;;;;;;;;;;4870012;29;20082;-78
2023/09/16 13:15:49;;;;;;;7.03;5.25;;;;;;;;;;4867809;29;20056;-78
2023/09/16 13:18:15;;;;;;;11.70;4.88;;;;;;;;;;4866499;29;20055;-78
2023/09/16 13:20:42;;;;;;;5.80;4.40;;;;;;;;;;4867975;29;20051;-79
2023/09/16 13:23:17;;;;;;;6.60;4.65;;;;;;;;;;4868067;29;20175;-79
2023/09/16 13:25:43;;;;;;;10.45;5.10;;;;;;;;;;4864882;29;20048;-79
2023/09/16 13:28:10;;;;;;;13.68;5.15;;;;;;;;;;4867044;29;20048;-79
2023/09/16 13:30:37;;;;;;;8.65;4.80;;;;;;;;;;4865751;29;20140;-79
2023/09/16 13:33:05;;;;;;;9.07;5.90;;;;;;;;;;4865769;29;21203;-79
2023/09/16 13:35:31;;;;;;;9.85;6.20;;;;;;;;;;4869096;29;20056;-76
2023/09/16 13:37:58;;;;;;;10.75;7.93;;;;;;;;;;4855446;29;20056;-76
2023/09/16 13:40:24;;;;;;;11.75;8.02;;;;;;;;;;4868069;29;20040;-76
2023/09/16 13:42:50;;;;;;;9.43;7.05;;;;;;;;;;4864069;29;20067;-76
2023/09/16 13:45:16;;;;;;;10.52;7.97;;;;;;;;;;4871540;29;20061;-78
2023/09/16 13:47:42;;;;;;;11.02;7.63;;;;;;;;;;4869274;29;20481;-76
2023/09/16 13:50:09;;;;;;;13.82;8.05;;;;;;;;;;4862866;29;20048;-76
2023/09/16 13:52:35;;;;;;;10.82;7.20;;;;;;;;;;4866352;29;20049;-76
2023/09/16 13:55:01;;;;;;;6.82;5.95;;;;;;;;;;4866326;29;20060;-77
2023/09/16 13:57:27;;;;;;;5.93;5.30;;;;;;;;;;4868998;29;20060;-77
2023/09/16 13:59:54;;;;;;;7.88;4.78;;;;;;;;;;4849773;29;20100;-77
2023/09/16 14:02:20;;;;;;;5.07;4.40;;;;;;;;;;4870743;29;20049;-77
2023/09/16 14:04:47;;;;;;;7.50;4.70;;;;;;;;;;4853817;29;20052;-77
2023/09/16 14:07:14;;;;;;;8.02;5.47;;;;;;;;;;4869271;29;20067;-77
2023/09/16 14:09:40;;;;;;;8.55;4.90;;;;;;;;;;4869614;29;20056;-77
2023/09/16 14:12:06;;;;;;;8.95;6.40;;;;;;;;;;4874476;29;20059;-78
2023/09/16 14:14:32;;;;;;;6.93;5.75;;;;;;;;;;4862788;29;20051;-77
2023/09/16 14:16:58;;;;;;;9.63;6.07;;;;;;;;;;4865153;29;21557;-77
2023/09/16 14:19:25;;;;;;;8.77;5.60;;;;;;;;;;4864933;29;20051;-77